createdAt,value
2023-01-15T00:02:27.220Z,1.03
2023-01-15T00:04:55.027Z,1.00
2023-01-15T00:07:22.924Z,0.80
2023-01-15T00:09:51.179Z,0.97
2023-01-15T00:12:18.836Z,2.23
2023-01-15T00:14:48.765Z,0.97
2023-01-15T00:17:16.433Z,1.30
2023-01-15T00:19:44.151Z,0.83
2023-01-15T00:22:11.827Z,1.67
2023-01-15T00:24:56.923Z,0.70
2023-01-15T00:27:40.075Z,0.53
2023-01-15T00:30:12.037Z,1.37
2023-01-15T00:32:40.168Z,0.67
2023-01-15T00:35:08.720Z,0.40
2023-01-15T00:37:36.441Z,0.83
2023-01-15T00:40:04.461Z,1.37
2023-01-15T00:42:32.173Z,1.00
2023-01-15T00:45:05.743Z,0.50
2023-01-15T00:47:34.926Z,1.00
2023-01-15T00:50:02.580Z,0.50
2023-01-15T00:52:30.285Z,1.07
2023-01-15T00:54:58.061Z,1.40
2023-01-15T00:57:25.785Z,0.73
2023-01-15T00:59:53.444Z,0.40
2023-01-15T01:02:21.486Z,0.30
2023-01-15T01:04:50.534Z,0.83
2023-01-15T01:07:18.798Z,0.90
2023-01-15T01:09:46.507Z,0.40
2023-01-15T01:12:14.206Z,0.40
2023-01-15T01:14:41.927Z,0.37
2023-01-15T01:17:09.666Z,0.50
2023-01-15T01:19:37.862Z,1.17
2023-01-15T01:22:06.935Z,0.30
2023-01-15T01:24:34.739Z,1.10
2023-01-15T01:27:02.521Z,0.27
2023-01-15T01:29:30.230Z,0.40
2023-01-15T01:31:57.975Z,0.40
2023-01-15T01:34:25.733Z,0.30
2023-01-15T01:36:53.411Z,0.47
2023-01-15T01:39:22.432Z,0.27
2023-01-15T01:41:50.188Z,0.50
2023-01-15T01:44:55.113Z,0.30
2023-01-15T01:47:26.617Z,0.50
2023-01-15T01:49:58.662Z,0.30
2023-01-15T01:52:31.593Z,0.30
2023-01-15T01:55:03.011Z,0.77
2023-01-15T01:57:30.875Z,0.50
2023-01-15T02:00:00.223Z,0.83
2023-01-15T02:02:28.443Z,0.20
2023-01-15T02:04:56.297Z,0.37
2023-01-15T02:07:24.047Z,0.70
2023-01-15T02:09:51.827Z,0.17
2023-01-15T02:12:29.402Z,0.47
2023-01-15T02:15:03.500Z,0.37
2023-01-15T02:17:37.700Z,0.40
2023-01-15T02:20:22.616Z,0.60
2023-01-15T02:23:01.934Z,0.40
2023-01-15T02:25:35.151Z,1.23
2023-01-15T02:28:11.557Z,0.20
2023-01-15T02:30:44.602Z,0.30
2023-01-15T02:33:18.405Z,0.30
2023-01-15T02:35:50.126Z,0.20
2023-01-15T02:38:22.731Z,0.13
2023-01-15T02:40:53.729Z,0.67
2023-01-15T02:43:25.791Z,0.20
2023-01-15T02:45:59.420Z,0.60
2023-01-15T02:48:30.633Z,0.20
2023-01-15T02:51:03.034Z,0.20
2023-01-15T02:53:32.334Z,0.40
2023-01-15T02:56:05.446Z,0.23
2023-01-15T02:58:38.481Z,0.13
2023-01-15T03:01:12.579Z,0.20
2023-01-15T03:03:48.757Z,0.20
2023-01-15T03:06:20.338Z,0.30
2023-01-15T03:08:49.134Z,0.40
2023-01-15T03:11:19.464Z,0.63
2023-01-15T03:13:52.888Z,1.53
2023-01-15T03:16:38.357Z,0.67
2023-01-15T03:19:16.417Z,0.33
2023-01-15T03:21:50.218Z,0.47
2023-01-15T03:24:22.782Z,0.30
2023-01-15T03:26:50.478Z,0.17
2023-01-15T03:29:21.107Z,0.20
2023-01-15T03:31:49.950Z,0.10
2023-01-15T03:34:17.831Z,0.83
2023-01-15T03:36:45.598Z,0.20
2023-01-15T03:39:13.533Z,0.30
2023-01-15T03:41:51.007Z,0.30
2023-01-15T03:44:28.401Z,0.20
2023-01-15T03:47:05.023Z,0.50
2023-01-15T03:49:41.890Z,0.20
2023-01-15T03:52:17.692Z,0.20
2023-01-15T03:54:52.834Z,0.50
2023-01-15T03:57:31.432Z,0.20
2023-01-15T04:00:04.643Z,0.20
2023-01-15T04:02:32.375Z,0.10
2023-01-15T04:05:01.247Z,0.97
2023-01-15T04:07:29.311Z,0.20
2023-01-15T04:09:57.128Z,0.10
2023-01-15T04:12:24.870Z,0.20
2023-01-15T04:14:52.629Z,0.20
2023-01-15T04:17:21.759Z,0.40
2023-01-15T04:19:49.491Z,0.30
2023-01-15T04:22:17.165Z,0.80
2023-01-15T04:24:44.945Z,0.37
2023-01-15T04:27:12.724Z,1.17
2023-01-15T04:29:40.456Z,0.77
2023-01-15T04:32:08.242Z,0.27
2023-01-15T04:34:37.308Z,0.20
2023-01-15T04:37:05.172Z,0.90
2023-01-15T04:39:33.191Z,0.27
2023-01-15T04:42:18.348Z,0.20
2023-01-15T04:44:46.056Z,1.97
2023-01-15T04:47:13.760Z,0.77
2023-01-15T04:49:42.916Z,0.10
2023-01-15T04:52:10.632Z,0.10
2023-01-15T04:54:39.148Z,0.10
2023-01-15T04:57:06.920Z,1.20
2023-01-15T04:59:34.717Z,0.50
2023-01-15T05:02:05.275Z,0.63
2023-01-15T05:04:34.883Z,0.30
2023-01-15T05:07:04.930Z,0.20
2023-01-15T05:09:32.903Z,1.57
2023-01-15T05:12:00.627Z,0.20
2023-01-15T05:14:28.359Z,0.30
2023-01-15T05:16:56.109Z,0.30
2023-01-15T05:19:23.853Z,0.43
2023-01-15T05:21:51.984Z,0.53
2023-01-15T05:24:21.117Z,0.30
2023-01-15T05:26:48.793Z,0.20
2023-01-15T05:29:16.764Z,0.40
2023-01-15T05:31:45.178Z,0.20
2023-01-15T05:34:14.139Z,0.10
2023-01-15T05:36:42.135Z,0.20
2023-01-15T05:39:10.141Z,0.73
2023-01-15T05:41:51.648Z,0.40
2023-01-15T05:44:22.717Z,0.30
2023-01-15T05:46:51.571Z,1.33
2023-01-15T05:49:21.328Z,0.20
2023-01-15T05:51:49.394Z,0.30
2023-01-15T05:54:22.024Z,0.20
2023-01-15T05:56:51.432Z,0.30
2023-01-15T05:59:21.284Z,0.10
2023-01-15T06:01:49.643Z,0.10
2023-01-15T06:04:21.039Z,0.50
2023-01-15T06:06:50.029Z,0.20
2023-01-15T06:09:18.213Z,0.23
2023-01-15T06:11:47.173Z,0.20
2023-01-15T06:14:16.905Z,0.20
2023-01-15T06:16:44.602Z,0.10
2023-01-15T06:19:13.707Z,0.57
2023-01-15T06:21:41.955Z,0.77
2023-01-15T06:24:10.284Z,0.10
2023-01-15T06:26:39.480Z,1.43
2023-01-15T06:29:07.157Z,0.10
2023-01-15T06:31:36.228Z,0.30
2023-01-15T06:34:04.199Z,0.20
2023-01-15T06:36:31.950Z,0.80
2023-01-15T06:38:59.621Z,0.43
2023-01-15T06:41:41.814Z,0.30
2023-01-15T06:44:31.109Z,0.60
2023-01-15T06:47:20.323Z,1.23
2023-01-15T06:49:48.838Z,0.10
2023-01-15T06:52:16.614Z,0.10
2023-01-15T06:54:44.348Z,0.40
2023-01-15T06:57:12.148Z,0.10
2023-01-15T06:59:39.891Z,0.10
2023-01-15T07:02:09.023Z,0.20
2023-01-15T07:04:37.855Z,0.10
2023-01-15T07:07:05.580Z,0.20
2023-01-15T07:09:33.286Z,0.73
2023-01-15T07:12:01.017Z,1.20
2023-01-15T07:14:29.087Z,0.10
2023-01-15T07:16:57.135Z,0.30
2023-01-15T07:19:26.418Z,0.10
2023-01-15T07:21:54.088Z,0.20
2023-01-15T07:24:21.786Z,2.20
2023-01-15T07:26:49.532Z,0.20
2023-01-15T07:29:17.386Z,0.10
2023-01-15T07:31:45.184Z,0.17
2023-01-15T07:34:12.905Z,0.10
2023-01-15T07:36:42.125Z,0.37
2023-01-15T07:39:11.834Z,0.10
2023-01-15T07:41:57.193Z,0.10
2023-01-15T07:44:43.031Z,0.20
2023-01-15T07:47:35.982Z,0.10
2023-01-15T07:50:04.119Z,0.10
2023-01-15T07:52:33.207Z,0.10
2023-01-15T07:55:01.139Z,0.10
2023-01-15T07:57:28.932Z,0.87
2023-01-15T07:59:56.629Z,0.30
2023-01-15T08:02:24.301Z,0.30
2023-01-15T08:04:52.261Z,0.67
2023-01-15T08:07:20.161Z,0.40
2023-01-15T08:09:49.204Z,0.87
2023-01-15T08:12:34.257Z,0.63
2023-01-15T08:15:14.118Z,0.30
2023-01-15T08:17:43.333Z,0.67
2023-01-15T08:20:13.219Z,0.10
2023-01-15T08:22:41.131Z,0.13
2023-01-15T08:25:11.912Z,0.43
2023-01-15T08:27:40.564Z,0.30
2023-01-15T08:30:11.762Z,0.60
2023-01-15T08:32:39.415Z,0.30
2023-01-15T08:35:08.169Z,0.20
2023-01-15T08:37:36.133Z,0.87
2023-01-15T08:40:04.518Z,0.20
2023-01-15T08:42:33.868Z,0.10
2023-01-15T08:45:01.560Z,0.70
2023-01-15T08:47:29.236Z,0.43
2023-01-15T08:49:56.917Z,0.70
2023-01-15T08:52:24.615Z,0.40
2023-01-15T08:54:52.274Z,0.83
2023-01-15T08:57:19.976Z,0.40
2023-01-15T08:59:49.631Z,0.93
2023-01-15T09:02:17.735Z,0.40
2023-01-15T09:04:45.455Z,1.07
2023-01-15T09:07:13.668Z,0.53
2023-01-15T09:09:41.473Z,0.30
2023-01-15T09:12:09.241Z,0.10
2023-01-15T09:14:58.988Z,0.43
2023-01-15T09:17:25.899Z,0.30
2023-01-15T09:19:53.646Z,1.03
2023-01-15T09:22:21.379Z,1.00
2023-01-15T09:24:49.119Z,1.07
2023-01-15T09:27:16.781Z,0.50
2023-01-15T09:29:44.445Z,1.40
2023-01-15T09:32:12.081Z,0.40
2023-01-15T09:34:41.191Z,1.80
2023-01-15T09:37:09.100Z,0.23
2023-01-15T09:39:38.770Z,0.43
2023-01-15T09:42:19.211Z,0.87
2023-01-15T09:45:11.620Z,1.30
2023-01-15T09:47:46.561Z,0.97
2023-01-15T09:50:25.850Z,0.30
2023-01-15T09:53:11.569Z,0.20
2023-01-15T09:55:46.500Z,0.97
2023-01-15T09:58:17.139Z,0.40
2023-01-15T10:00:47.861Z,0.40
2023-01-15T10:03:29.015Z,1.63
2023-01-15T10:06:08.346Z,0.20
2023-01-15T10:08:39.444Z,0.50
2023-01-15T10:11:23.008Z,0.30
2023-01-15T10:13:54.810Z,0.40
2023-01-15T10:16:25.846Z,0.30
2023-01-15T10:18:54.396Z,1.27
2023-01-15T10:21:37.194Z,0.20
2023-01-15T10:24:14.039Z,1.27
2023-01-15T10:26:48.005Z,1.60
2023-01-15T10:29:23.555Z,0.30
2023-01-15T10:31:53.783Z,0.40
2023-01-15T10:34:55.997Z,0.40
2023-01-15T10:37:31.163Z,1.23
2023-01-15T10:40:14.611Z,0.40
2023-01-15T10:42:48.908Z,0.40
2023-01-15T10:45:21.304Z,0.50
2023-01-15T10:47:55.082Z,0.60
2023-01-15T10:50:24.879Z,0.40
2023-01-15T10:53:07.320Z,0.43
2023-01-15T10:55:39.452Z,0.50
2023-01-15T10:58:16.445Z,0.60
2023-01-15T11:00:51.653Z,0.87
2023-01-15T11:03:24.145Z,0.30
2023-01-15T11:05:51.822Z,0.30
2023-01-15T11:11:23.417Z,1.27
2023-01-15T11:14:13.156Z,0.87
2023-01-15T11:17:00.474Z,0.77
2023-01-15T11:19:43.846Z,0.73
2023-01-15T11:22:14.328Z,0.50
2023-01-15T11:24:56.653Z,0.60
2023-01-15T11:27:28.192Z,0.77
2023-01-15T11:29:57.573Z,0.47
2023-01-15T11:32:30.364Z,0.50
2023-01-15T11:35:00.165Z,0.60
2023-01-15T11:37:28.793Z,0.60
2023-01-15T11:40:05.616Z,0.67
2023-01-15T11:42:51.021Z,1.07
2023-01-15T11:45:38.319Z,0.63
2023-01-15T11:48:33.806Z,0.50
2023-01-15T11:51:07.437Z,0.80
2023-01-15T11:53:40.097Z,0.53
2023-01-15T11:56:14.646Z,0.50
2023-01-15T11:58:46.541Z,0.50
2023-01-15T12:01:16.764Z,0.20
2023-01-15T12:03:45.461Z,0.40
2023-01-15T12:06:15.659Z,0.60
2023-01-15T12:08:51.280Z,0.20
2023-01-15T12:11:45.671Z,0.30
2023-01-15T12:14:33.547Z,0.23
2023-01-15T12:17:09.121Z,0.30
2023-01-15T12:19:43.507Z,0.20
2023-01-15T12:22:25.652Z,0.20
2023-01-15T12:25:11.153Z,0.30
2023-01-15T12:28:03.023Z,0.20
2023-01-15T12:30:39.212Z,0.20
2023-01-15T12:33:33.457Z,0.33
2023-01-15T12:36:10.027Z,0.13
2023-01-15T12:38:48.564Z,0.30
2023-01-15T12:41:22.208Z,0.53
2023-01-15T12:44:15.046Z,0.10
2023-01-15T12:46:45.325Z,0.73
2023-01-15T12:49:25.791Z,0.20
2023-01-15T12:52:03.087Z,0.23
2023-01-15T12:54:36.860Z,0.30
2023-01-15T12:57:14.313Z,1.33
2023-01-15T12:59:54.510Z,0.20
2023-01-15T13:02:29.215Z,0.60
2023-01-15T13:05:04.893Z,0.37
2023-01-15T13:07:37.622Z,0.67
2023-01-15T13:10:12.084Z,0.40
2023-01-15T13:12:39.965Z,1.73
2023-01-15T13:15:14.911Z,1.00
2023-01-15T13:17:55.548Z,0.83
2023-01-15T13:20:38.116Z,0.93
2023-01-15T13:23:10.814Z,0.70
2023-01-15T13:26:03.857Z,0.63
2023-01-15T13:28:45.627Z,0.20
2023-01-15T13:31:49.542Z,0.77
2023-01-15T13:34:27.886Z,1.17
2023-01-15T13:37:00.279Z,1.13
2023-01-15T13:39:38.955Z,0.30
2023-01-15T13:42:25.338Z,1.07
2023-01-15T13:44:54.760Z,1.00
2023-01-15T13:47:27.133Z,0.30
2023-01-15T13:49:59.632Z,0.60
2023-01-15T13:52:29.964Z,1.37
2023-01-15T13:55:01.169Z,0.60
2023-01-15T13:57:35.128Z,0.20
2023-01-15T14:00:04.982Z,0.73
2023-01-15T14:02:38.567Z,0.30
2023-01-15T14:05:25.080Z,1.13
2023-01-15T14:07:52.853Z,0.30
2023-01-15T14:10:35.652Z,1.60
2023-01-15T14:13:28.186Z,1.00
2023-01-15T14:16:05.205Z,0.33
2023-01-15T14:18:54.376Z,0.90
2023-01-15T14:21:32.334Z,1.63
2023-01-15T14:24:33.063Z,0.80
2023-01-15T14:27:07.323Z,2.20
2023-01-15T14:29:56.170Z,2.63
2023-01-15T14:32:36.219Z,1.93
2023-01-15T14:35:13.105Z,1.67
2023-01-15T14:37:49.963Z,2.30
2023-01-15T14:40:22.153Z,3.03
2023-01-15T14:43:10.277Z,0.90
2023-01-15T14:45:40.367Z,2.50
2023-01-15T14:48:19.519Z,1.90
2023-01-15T14:50:50.026Z,1.27
2023-01-15T14:53:31.933Z,0.50
2023-01-15T14:56:06.723Z,1.10
2023-01-15T14:58:41.323Z,1.33
2023-01-15T15:01:18.320Z,2.80
2023-01-15T15:03:52.885Z,1.03
2023-01-15T15:06:22.635Z,1.17
2023-01-15T15:08:52.737Z,0.50
2023-01-15T15:11:43.819Z,1.37
2023-01-15T15:14:16.680Z,0.67
2023-01-15T15:16:48.533Z,2.63
2023-01-15T15:19:23.018Z,0.63
2023-01-15T15:21:53.361Z,2.00
2023-01-15T15:24:26.799Z,1.33
2023-01-15T15:26:54.622Z,2.20
2023-01-15T15:29:23.471Z,1.50
2023-01-15T15:31:56.730Z,0.40
2023-01-15T15:34:29.679Z,1.77
2023-01-15T15:37:01.953Z,2.83
2023-01-15T15:39:36.671Z,0.60
2023-01-15T15:42:29.913Z,0.97
2023-01-15T15:45:18.068Z,1.60
2023-01-15T15:48:03.410Z,0.70
2023-01-15T15:50:33.165Z,2.43
2023-01-15T15:53:04.535Z,2.70
2023-01-15T15:55:38.647Z,0.50
2023-01-15T15:58:08.852Z,3.23
2023-01-15T16:00:41.531Z,1.37
2023-01-15T16:03:20.296Z,0.47
2023-01-15T16:05:57.280Z,1.13
2023-01-15T16:08:27.327Z,1.33
2023-01-15T16:10:58.693Z,2.87
2023-01-15T16:13:29.405Z,1.70
2023-01-15T16:15:59.796Z,1.67
2023-01-15T16:18:30.006Z,2.63
2023-01-15T16:20:59.047Z,3.37
2023-01-15T16:23:29.933Z,1.47
2023-01-15T16:26:02.228Z,2.77
2023-01-15T16:28:37.359Z,5.07
2023-01-15T16:31:05.420Z,2.47
2023-01-15T16:33:33.191Z,1.90
2023-01-15T16:36:04.661Z,2.83
2023-01-15T16:38:35.419Z,3.03
2023-01-15T16:41:03.399Z,1.37
2023-01-15T16:43:32.599Z,1.20
2023-01-15T16:46:07.160Z,1.20
2023-01-15T16:48:38.255Z,3.77
2023-01-15T16:51:31.188Z,1.73
2023-01-15T16:54:02.039Z,3.30
2023-01-15T16:56:51.822Z,2.20
2023-01-15T16:59:42.162Z,1.37
2023-01-15T17:02:15.642Z,1.33
2023-01-15T17:04:45.798Z,1.90
2023-01-15T17:07:19.173Z,2.53
2023-01-15T17:09:50.729Z,8.80
2023-01-15T17:12:26.380Z,8.43
2023-01-15T17:14:54.229Z,3.47
2023-01-15T17:17:29.669Z,4.30
2023-01-15T17:19:57.899Z,3.33
2023-01-15T17:22:28.040Z,2.03
2023-01-15T17:24:58.681Z,2.13
2023-01-15T17:27:27.581Z,5.07
2023-01-15T17:29:55.517Z,2.50
2023-01-15T17:32:29.886Z,3.17
2023-01-15T17:34:58.426Z,2.47
2023-01-15T17:37:26.125Z,1.27
2023-01-15T17:39:54.185Z,1.57
2023-01-15T17:42:23.204Z,1.23
2023-01-15T17:44:50.881Z,2.73
2023-01-15T17:47:18.549Z,2.83
2023-01-15T17:49:46.196Z,2.73
2023-01-15T17:52:19.446Z,3.37
2023-01-15T17:55:04.439Z,2.63
2023-01-15T17:57:51.134Z,1.23
2023-01-15T18:00:37.104Z,5.47
2023-01-15T18:03:22.918Z,1.40
2023-01-15T18:05:52.539Z,3.10
2023-01-15T18:08:20.699Z,1.80
2023-01-15T18:10:48.397Z,1.83
2023-01-15T18:13:19.727Z,1.90
2023-01-15T18:15:47.428Z,3.60
2023-01-15T18:18:15.915Z,3.60
2023-01-15T18:20:43.580Z,2.53
2023-01-15T18:23:11.452Z,3.50
2023-01-15T18:25:45.757Z,5.83
2023-01-15T18:28:13.722Z,2.33
2023-01-15T18:30:42.757Z,2.27
2023-01-15T18:33:10.410Z,5.53
2023-01-15T18:35:38.093Z,2.27
2023-01-15T18:38:06.056Z,2.07
2023-01-15T18:40:34.307Z,1.53
2023-01-15T18:43:19.259Z,3.53
2023-01-15T18:46:06.437Z,2.67
2023-01-15T18:48:34.714Z,3.10
2023-01-15T18:51:08.528Z,1.47
2023-01-15T18:53:37.565Z,1.40
2023-01-15T18:56:05.841Z,1.57
2023-01-15T18:58:33.530Z,2.03
2023-01-15T19:01:08.986Z,2.13
2023-01-15T19:03:37.076Z,2.57
2023-01-15T19:06:10.236Z,2.53
2023-01-15T19:08:37.907Z,1.40
2023-01-15T19:11:12.525Z,0.67
2023-01-15T19:13:40.213Z,1.93
2023-01-15T19:16:27.227Z,3.70
2023-01-15T19:18:55.071Z,3.60
2023-01-15T19:21:24.769Z,1.10
2023-01-15T19:23:52.762Z,1.13
2023-01-15T19:26:20.404Z,1.30
2023-01-15T19:28:48.069Z,2.03
2023-01-15T19:31:36.749Z,2.70
2023-01-15T19:34:32.263Z,3.30
2023-01-15T19:36:55.598Z,3.47
2023-01-15T19:39:23.243Z,4.17
2023-01-15T19:42:08.599Z,1.53
2023-01-15T19:45:05.481Z,2.97
2023-01-15T19:47:55.294Z,1.70
2023-01-15T19:50:27.200Z,0.83
2023-01-15T19:52:56.431Z,1.40
2023-01-15T19:55:26.006Z,1.77
2023-01-15T19:57:58.775Z,2.30
2023-01-15T20:00:27.365Z,2.80
2023-01-15T20:02:57.057Z,4.30
2023-01-15T20:05:26.783Z,2.40
2023-01-15T20:07:54.800Z,3.63
2023-01-15T20:10:25.427Z,2.17
2023-01-15T20:13:11.292Z,2.27
2023-01-15T20:15:40.922Z,2.63
2023-01-15T20:18:09.976Z,1.23
2023-01-15T20:20:38.591Z,3.90
2023-01-15T20:23:06.539Z,0.97
2023-01-15T20:25:34.253Z,2.00
2023-01-15T20:28:01.973Z,0.90
2023-01-15T20:30:30.028Z,1.43
2023-01-15T20:32:58.337Z,2.20
2023-01-15T20:35:31.377Z,1.63
2023-01-15T20:37:59.957Z,1.57
2023-01-15T20:40:28.806Z,1.20
2023-01-15T20:43:15.635Z,1.70
2023-01-15T20:45:43.423Z,1.90
2023-01-15T20:48:28.718Z,2.10
2023-01-15T20:51:02.477Z,1.00
2023-01-15T20:53:33.586Z,2.30
2023-01-15T20:56:01.741Z,1.73
2023-01-15T20:58:33.127Z,1.20
2023-01-15T21:01:04.198Z,1.10
2023-01-15T21:03:32.242Z,0.93
2023-01-15T21:06:03.855Z,2.10
2023-01-15T21:08:33.587Z,2.70
2023-01-15T21:11:01.905Z,1.73
2023-01-15T21:13:31.164Z,1.20
2023-01-15T21:16:01.471Z,3.00
2023-01-15T21:18:32.258Z,1.80
2023-01-15T21:21:02.974Z,2.37
2023-01-15T21:23:30.748Z,0.93
2023-01-15T21:26:02.447Z,1.67
2023-01-15T21:28:31.499Z,2.43
2023-01-15T21:31:01.209Z,1.77
2023-01-15T21:33:29.100Z,1.83
2023-01-15T21:35:59.623Z,2.00
2023-01-15T21:38:28.848Z,1.37
2023-01-15T21:40:56.754Z,3.40
2023-01-15T21:43:42.075Z,1.27
2023-01-15T21:46:10.095Z,2.30
2023-01-15T21:48:37.960Z,4.23
2023-01-15T21:51:06.882Z,1.70
2023-01-15T21:53:36.279Z,1.70
2023-01-15T21:56:04.890Z,3.67
2023-01-15T21:58:38.040Z,2.83
2023-01-15T22:01:10.180Z,2.27
2023-01-15T22:03:38.939Z,2.23
2023-01-15T22:06:08.003Z,1.97
2023-01-15T22:08:37.584Z,5.03
2023-01-15T22:11:09.714Z,2.73
2023-01-15T22:13:40.944Z,2.67
2023-01-15T22:16:09.847Z,1.30
2023-01-15T22:18:40.882Z,0.50
2023-01-15T22:21:14.814Z,0.63
2023-01-15T22:23:44.972Z,1.40
2023-01-15T22:26:18.287Z,0.70
2023-01-15T22:28:47.865Z,2.73
2023-01-15T22:31:17.763Z,1.87
2023-01-15T22:33:45.695Z,1.90
2023-01-15T22:36:14.765Z,1.40
2023-01-15T22:38:44.579Z,3.67
2023-01-15T22:41:12.692Z,1.07
2023-01-15T22:43:40.539Z,0.83
2023-01-15T22:46:12.123Z,1.47
2023-01-15T22:48:40.292Z,0.67
2023-01-15T22:51:10.362Z,0.80
2023-01-15T22:53:38.340Z,0.90
2023-01-15T22:56:08.657Z,1.63
2023-01-15T22:58:40.020Z,0.93
2023-01-15T23:01:08.390Z,1.07
2023-01-15T23:03:36.916Z,1.37
2023-01-15T23:06:05.884Z,1.13
2023-01-15T23:08:36.413Z,2.80
2023-01-15T23:11:09.205Z,1.47
2023-01-15T23:13:38.978Z,0.97
2023-01-15T23:16:07.525Z,1.37
2023-01-15T23:18:35.589Z,2.30
2023-01-15T23:21:04.638Z,1.60
2023-01-15T23:23:32.677Z,2.63
2023-01-15T23:26:02.376Z,0.80
2023-01-15T23:28:30.457Z,2.43
2023-01-15T23:30:59.523Z,2.80
2023-01-15T23:33:27.900Z,0.87
2023-01-15T23:35:55.725Z,1.17
2023-01-15T23:38:23.517Z,2.80
2023-01-15T23:40:51.106Z,1.63
2023-01-15T23:43:37.224Z,0.60
2023-01-15T23:46:25.993Z,1.40
2023-01-15T23:48:53.677Z,3.53
2023-01-15T23:51:21.320Z,1.10
2023-01-15T23:53:48.961Z,6.27
2023-01-15T23:56:16.570Z,3.17
2023-01-15T23:58:45.108Z,2.63
